createdAt,value
2022-10-17T00:13:19.385Z,3.94
2022-10-17T00:33:25.055Z,4.64
2022-10-17T00:53:31.258Z,3.16
2022-10-17T01:13:37.029Z,3.70
2022-10-17T01:33:42.828Z,5.01
2022-10-17T01:53:49.068Z,4.07
2022-10-17T02:13:54.798Z,4.03
2022-10-17T02:34:00.545Z,3.10
2022-10-17T02:54:06.291Z,4.98
2022-10-17T03:14:12.543Z,2.92
2022-10-17T03:34:18.255Z,4.77
2022-10-17T03:54:24.052Z,4.08
2022-10-17T04:14:30.260Z,5.01
2022-10-17T04:34:35.997Z,2.71
2022-10-17T04:54:42.220Z,5.10
2022-10-17T05:14:47.964Z,3.87
2022-10-17T05:34:53.736Z,5.22
2022-10-17T05:54:59.509Z,5.36
2022-10-17T06:15:05.252Z,11.28
2022-10-17T06:35:10.959Z,6.97
2022-10-17T06:55:19.643Z,9.70
2022-10-17T07:15:22.450Z,7.69
2022-10-17T07:35:28.183Z,43.05
2022-10-17T07:55:33.895Z,76.14
2022-10-17T08:15:40.078Z,23.77
2022-10-17T08:35:45.787Z,18.56
2022-10-17T08:55:52.000Z,18.88
2022-10-17T09:15:57.737Z,17.71
2022-10-17T09:36:03.961Z,17.07
2022-10-17T09:56:09.706Z,15.32
2022-10-17T10:16:15.431Z,16.19
2022-10-17T10:36:21.227Z,15.91
2022-10-17T10:56:26.984Z,11.61
2022-10-17T11:16:32.748Z,10.15
2022-10-17T11:36:38.940Z,9.86
2022-10-17T11:56:44.679Z,9.57
2022-10-17T12:16:50.887Z,7.84
2022-10-17T12:36:57.062Z,8.47
2022-10-17T12:57:02.810Z,7.41
2022-10-17T13:17:09.033Z,7.26
2022-10-17T13:37:14.899Z,8.40
2022-10-17T13:57:20.518Z,7.04
2022-10-17T14:17:27.140Z,8.48
2022-10-17T14:37:32.472Z,6.88
2022-10-17T14:57:38.250Z,8.18
2022-10-17T15:37:50.404Z,7.65
2022-10-17T15:57:56.131Z,8.82
2022-10-17T16:18:04.370Z,9.59
2022-10-17T16:38:07.178Z,11.90
2022-10-17T16:58:13.371Z,11.22
2022-10-17T17:18:19.610Z,9.41
2022-10-17T17:38:25.337Z,10.88
2022-10-17T17:58:31.533Z,8.39
2022-10-17T18:18:37.277Z,8.65
2022-10-17T18:38:43.015Z,8.98
2022-10-17T18:58:48.773Z,7.40
2022-10-17T19:18:54.553Z,8.55
2022-10-17T19:39:00.282Z,9.49
2022-10-17T19:59:06.069Z,9.56
2022-10-17T20:19:11.811Z,8.68
2022-10-17T20:39:17.539Z,8.60
2022-10-17T20:59:23.262Z,10.46
2022-10-17T21:19:29.481Z,8.44
2022-10-17T21:39:35.219Z,11.14
2022-10-17T21:59:40.921Z,9.60
2022-10-17T22:19:46.668Z,8.22
2022-10-17T22:39:52.412Z,9.20
2022-10-17T22:59:58.180Z,9.22
2022-10-17T23:20:04.362Z,7.93
2022-10-17T23:40:10.544Z,7.91
